Marine Rouge — JG5115 — position and weather

sailwx.info

Track history (hours):
 
Tides and Currents Weather Stations Pressure Air Temp Water Temp Dewpoint Dewpoint Depression Visibility Wind Speed Wind Dir Waves Ship Positions

Marine Rouge

Last reported at 2015-Sep-04 12:33 UTC. Time now 2015-Sep-04 18:55 UTC.
Position N 35°27' E 139°39'.

Length 52 m; draft 2.8 m.

Type: Passenger vessel. MMSI: 431000518.

Date/timePositionNaut miles runAvg speedWind from/ knotsBaromVisibWave heightAir tempDewpointWater temp
2015-Sep-04 12:33N 35°27' E 139°39'1 0.9
2015-Sep-04 11:33N 35°28' E 139°40'1 0.9
2015-Sep-04 10:34N 35°27' E 139°39'1 0.5
2015-Sep-04 09:33N 35°27' E 139°39'0 0.0
2015-Sep-04 08:33N 35°27' E 139°39'1 0.7
2015-Sep-04 07:34N 35°27' E 139°39'1 0.7
2015-Sep-04 06:33N 35°27' E 139°39'0 0.1
2015-Sep-04 05:34N 35°27' E 139°39'0 0.1
2015-Sep-04 04:33N 35°27' E 139°39'1 0.7
2015-Sep-04 03:34N 35°27' E 139°39'1 0.7
2015-Sep-04 02:33N 35°27' E 139°39'0 0.0
2015-Sep-04 01:33N 35°27' E 139°39'0 0.0
2015-Sep-04 00:34N 35°27' E 139°39'0 0.0
2015-Sep-03 11:33N 35°27' E 139°39'3 2.8
2015-Sep-03 10:33N 35°27' E 139°43'3 2.9
2015-Sep-03 09:33N 35°27' E 139°39'0 0.0
2015-Sep-03 08:33N 35°27' E 139°39'1 0.6
2015-Sep-03 07:33N 35°27' E 139°39'1 0.6
2015-Sep-03 06:33N 35°27' E 139°39'0 0.1
2015-Sep-03 05:34N 35°27' E 139°39'0 0.1
2015-Sep-03 04:33N 35°27' E 139°39'1 0.5
2015-Sep-03 03:34N 35°27' E 139°39'1 0.5
2015-Sep-03 02:33N 35°27' E 139°39'0 0.0
2015-Sep-03 01:33N 35°27' E 139°39'1 0.1
2015-Sep-02 11:34N 35°28' E 139°39'0 0.4
2015-Sep-02 10:34N 35°27' E 139°39'1 0.6
2015-Sep-02 09:33N 35°27' E 139°39'0 0.0
2015-Sep-02 08:33N 35°27' E 139°39'2 1.5
2015-Sep-02 07:34N 35°27' E 139°41'2 1.5
2015-Sep-02 06:33N 35°27' E 139°39'0 0.1
2015-Sep-02 05:33N 35°27' E 139°39'0 0.1
2015-Sep-02 04:33N 35°27' E 139°39'1 0.5
2015-Sep-02 03:34N 35°27' E 139°39'1 0.5
2015-Sep-02 02:33N 35°27' E 139°39'0 0.0
2015-Sep-02 01:33N 35°27' E 139°39'0 0.0
2015-Sep-02 00:33N 35°27' E 139°39'0 0.0
2015-Sep-01 12:33N 35°27' E 139°39'3 3.4
2015-Sep-01 11:33N 35°27' E 139°43'4 3.6
2015-Sep-01 10:33N 35°27' E 139°39'1 0.6
2015-Sep-01 09:33N 35°27' E 139°39'0 0.4
2015-Sep-01 08:34N 35°27' E 139°39'0 0.3
2015-Sep-01 07:33N 35°27' E 139°39'1 0.7
2015-Sep-01 06:33N 35°27' E 139°39'0 0.1
2015-Sep-01 05:33N 35°27' E 139°39'0 0.1
2015-Sep-01 04:33N 35°27' E 139°39'1 0.6
2015-Sep-01 03:34N 35°27' E 139°39'1 0.6
2015-Sep-01 02:33N 35°27' E 139°39'0 0.0
2015-Sep-01 01:33N 35°27' E 139°39'0 0.0
2015-Sep-01 00:33N 35°27' E 139°39'0 0.0
2015-Aug-31 12:31N 35°27' E 139°39'2 1.7
2015-Aug-31 11:33N 35°28' E 139°40'2 1.6
2015-Aug-31 10:33N 35°27' E 139°39'1 0.5
2015-Aug-31 09:33N 35°27' E 139°39'0 0.0
2015-Aug-31 08:33N 35°27' E 139°39'3 2.7
2015-Aug-31 07:34N 35°28' E 139°42'3 2.7
2015-Aug-31 06:33N 35°27' E 139°39'0 0.1
2015-Aug-31 05:34N 35°27' E 139°39'0 0.1
2015-Aug-31 04:33N 35°27' E 139°39'1 0.5
2015-Aug-31 03:33N 35°27' E 139°39'1 0.5
2015-Aug-31 02:33N 35°27' E 139°39'0 0.0
2015-Aug-31 01:33N 35°27' E 139°39'0 0.0
2015-Aug-31 00:33N 35°27' E 139°39'1 0.0
2015-Aug-30 12:33N 35°27' E 139°39'2 1.9
2015-Aug-30 11:34N 35°28' E 139°41'2 1.8
2015-Aug-30 10:34N 35°27' E 139°39'1 0.5
2015-Aug-30 09:34N 35°27' E 139°39'0 0.0
2015-Aug-30 08:33N 35°27' E 139°39'0 0.5
2015-Aug-30 07:34N 35°27' E 139°39'0 0.5
2015-Aug-30 06:33N 35°27' E 139°39'0 0.1
2015-Aug-30 05:34N 35°27' E 139°39'0 0.1
2015-Aug-30 04:34N 35°27' E 139°39'1 0.5
2015-Aug-30 03:34N 35°27' E 139°39'0 0.5
2015-Aug-30 02:34N 35°27' E 139°39'0 0.0
2015-Aug-30 01:33N 35°27' E 139°39'1 0.1
2015-Aug-29 11:33N 35°28' E 139°39'2 2.4
2015-Aug-29 10:34N 35°28' E 139°42'3 2.6
2015-Aug-29 09:33N 35°27' E 139°39'0 0.0
2015-Aug-29 08:33N 35°27' E 139°39'1 0.5
2015-Aug-29 07:33N 35°27' E 139°39'1 0.5
2015-Aug-29 06:33N 35°27' E 139°39'0 0.1
2015-Aug-29 05:34N 35°27' E 139°39'0 0.1
2015-Aug-29 04:33N 35°27' E 139°39'1 0.5
2015-Aug-29 03:33N 35°27' E 139°39'1 0.5
2015-Aug-29 02:33N 35°27' E 139°39'0 0.0
2015-Aug-29 01:33N 35°27' E 139°39'0 0.0
2015-Aug-29 00:33N 35°27' E 139°39'0 0.0
2015-Aug-28 12:29N 35°27' E 139°39'1 1.1
2015-Aug-28 11:33N 35°28' E 139°40'1 1.2
2015-Aug-28 10:33N 35°27' E 139°39'1 0.5
2015-Aug-28 09:33N 35°27' E 139°39'0 0.0
2015-Aug-28 08:33N 35°27' E 139°39'0 0.5
2015-Aug-28 07:34N 35°27' E 139°39'0 0.5
2015-Aug-28 06:33N 35°27' E 139°39'0 0.1
2015-Aug-28 05:34N 35°27' E 139°39'1 1.5
2015-Aug-28 04:33N 35°28' E 139°40'1 1.5
2015-Aug-28 03:33N 35°27' E 139°39'1 0.5
2015-Aug-28 02:33N 35°27' E 139°39'0 0.0
2015-Aug-28 01:33N 35°27' E 139°39'0 0.0
2015-Aug-28 00:33N 35°27' E 139°39'0 0.0
2015-Aug-27 12:26N 35°27' E 139°39'2 1.8
2015-Aug-27 11:33N 35°28' E 139°40'2 1.6
2015-Aug-27 10:34N 35°27' E 139°39'1 0.5
2015-Aug-27 09:33N 35°27' E 139°39'0 0.0
2015-Aug-27 08:33N 35°27' E 139°39'0 0.5
2015-Aug-27 07:34N 35°27' E 139°39'0 0.5
2015-Aug-27 06:33N 35°27' E 139°39'0 0.1
2015-Aug-27 05:33N 35°27' E 139°39'0 0.1
2015-Aug-27 04:33N 35°27' E 139°39'1 0.8
2015-Aug-27 03:33N 35°27' E 139°40'1 0.8
2015-Aug-27 02:33N 35°27' E 139°39'0 0.0
2015-Aug-27 01:33N 35°27' E 139°39'0 0.0
2015-Aug-26 12:31N 35°27' E 139°39'1 0.9
2015-Aug-26 11:34N 35°28' E 139°39'1 0.7
2015-Aug-26 10:33N 35°27' E 139°39'1 0.5
2015-Aug-26 09:33N 35°27' E 139°39'0 0.0
2015-Aug-26 08:33N 35°27' E 139°39'1 0.5
2015-Aug-26 07:33N 35°27' E 139°39'1 0.5
2015-Aug-26 06:33N 35°27' E 139°39'0 0.1
2015-Aug-26 05:33N 35°27' E 139°39'0 0.1
2015-Aug-26 04:33N 35°27' E 139°39'1 0.6
2015-Aug-26 03:33N 35°27' E 139°39'1 0.6
2015-Aug-26 02:33N 35°27' E 139°39'0 0.0
2015-Aug-26 01:33N 35°27' E 139°39'  
Track history (hours):
 
Tides and Currents Weather Stations Pressure Air Temp Water Temp Dewpoint Dewpoint Depression Visibility Wind Speed Wind Dir Waves Ship Positions

Marine Rouge

Last reported at 2015-Sep-04 12:33 UTC. Time now 2015-Sep-04 18:55 UTC.
Position N 35°27' E 139°39'.

Length 52 m; draft 2.8 m.

Type: Passenger vessel. MMSI: 431000518.

Date/timePositionNaut miles runAvg speedWind from/ knotsBaromVisibWave heightAir tempDewpointWater temp
2015-Sep-04 12:33N 35°27' E 139°39'1 0.9
2015-Sep-04 11:33N 35°28' E 139°40'1 0.9
2015-Sep-04 10:34N 35°27' E 139°39'1 0.5
2015-Sep-04 09:33N 35°27' E 139°39'0 0.0
2015-Sep-04 08:33N 35°27' E 139°39'1 0.7
2015-Sep-04 07:34N 35°27' E 139°39'1 0.7
2015-Sep-04 06:33N 35°27' E 139°39'0 0.1
2015-Sep-04 05:34N 35°27' E 139°39'0 0.1
2015-Sep-04 04:33N 35°27' E 139°39'1 0.7
2015-Sep-04 03:34N 35°27' E 139°39'1 0.7
2015-Sep-04 02:33N 35°27' E 139°39'0 0.0
2015-Sep-04 01:33N 35°27' E 139°39'0 0.0
2015-Sep-04 00:34N 35°27' E 139°39'0 0.0
2015-Sep-03 11:33N 35°27' E 139°39'3 2.8
2015-Sep-03 10:33N 35°27' E 139°43'3 2.9
2015-Sep-03 09:33N 35°27' E 139°39'0 0.0
2015-Sep-03 08:33N 35°27' E 139°39'1 0.6
2015-Sep-03 07:33N 35°27' E 139°39'1 0.6
2015-Sep-03 06:33N 35°27' E 139°39'0 0.1
2015-Sep-03 05:34N 35°27' E 139°39'0 0.1
2015-Sep-03 04:33N 35°27' E 139°39'1 0.5
2015-Sep-03 03:34N 35°27' E 139°39'1 0.5
2015-Sep-03 02:33N 35°27' E 139°39'0 0.0
2015-Sep-03 01:33N 35°27' E 139°39'1 0.1
2015-Sep-02 11:34N 35°28' E 139°39'0 0.4
2015-Sep-02 10:34N 35°27' E 139°39'1 0.6
2015-Sep-02 09:33N 35°27' E 139°39'0 0.0
2015-Sep-02 08:33N 35°27' E 139°39'2 1.5
2015-Sep-02 07:34N 35°27' E 139°41'2 1.5
2015-Sep-02 06:33N 35°27' E 139°39'0 0.1
2015-Sep-02 05:33N 35°27' E 139°39'0 0.1
2015-Sep-02 04:33N 35°27' E 139°39'1 0.5
2015-Sep-02 03:34N 35°27' E 139°39'1 0.5
2015-Sep-02 02:33N 35°27' E 139°39'0 0.0
2015-Sep-02 01:33N 35°27' E 139°39'0 0.0
2015-Sep-02 00:33N 35°27' E 139°39'0 0.0
2015-Sep-01 12:33N 35°27' E 139°39'3 3.4
2015-Sep-01 11:33N 35°27' E 139°43'4 3.6
2015-Sep-01 10:33N 35°27' E 139°39'1 0.6
2015-Sep-01 09:33N 35°27' E 139°39'0 0.4
2015-Sep-01 08:34N 35°27' E 139°39'0 0.3
2015-Sep-01 07:33N 35°27' E 139°39'1 0.7
2015-Sep-01 06:33N 35°27' E 139°39'0 0.1
2015-Sep-01 05:33N 35°27' E 139°39'0 0.1
2015-Sep-01 04:33N 35°27' E 139°39'1 0.6
2015-Sep-01 03:34N 35°27' E 139°39'1 0.6
2015-Sep-01 02:33N 35°27' E 139°39'0 0.0
2015-Sep-01 01:33N 35°27' E 139°39'0 0.0
2015-Sep-01 00:33N 35°27' E 139°39'0 0.0
2015-Aug-31 12:31N 35°27' E 139°39'2 1.7
2015-Aug-31 11:33N 35°28' E 139°40'2 1.6
2015-Aug-31 10:33N 35°27' E 139°39'1 0.5
2015-Aug-31 09:33N 35°27' E 139°39'0 0.0
2015-Aug-31 08:33N 35°27' E 139°39'3 2.7
2015-Aug-31 07:34N 35°28' E 139°42'3 2.7
2015-Aug-31 06:33N 35°27' E 139°39'0 0.1
2015-Aug-31 05:34N 35°27' E 139°39'0 0.1
2015-Aug-31 04:33N 35°27' E 139°39'1 0.5
2015-Aug-31 03:33N 35°27' E 139°39'1 0.5
2015-Aug-31 02:33N 35°27' E 139°39'0 0.0
2015-Aug-31 01:33N 35°27' E 139°39'0 0.0
2015-Aug-31 00:33N 35°27' E 139°39'1 0.0
2015-Aug-30 12:33N 35°27' E 139°39'2 1.9
2015-Aug-30 11:34N 35°28' E 139°41'2 1.8
2015-Aug-30 10:34N 35°27' E 139°39'1 0.5
2015-Aug-30 09:34N 35°27' E 139°39'0 0.0
2015-Aug-30 08:33N 35°27' E 139°39'0 0.5
2015-Aug-30 07:34N 35°27' E 139°39'0 0.5
2015-Aug-30 06:33N 35°27' E 139°39'0 0.1
2015-Aug-30 05:34N 35°27' E 139°39'0 0.1
2015-Aug-30 04:34N 35°27' E 139°39'1 0.5
2015-Aug-30 03:34N 35°27' E 139°39'0 0.5
2015-Aug-30 02:34N 35°27' E 139°39'0 0.0
2015-Aug-30 01:33N 35°27' E 139°39'1 0.1
2015-Aug-29 11:33N 35°28' E 139°39'2 2.4
2015-Aug-29 10:34N 35°28' E 139°42'3 2.6
2015-Aug-29 09:33N 35°27' E 139°39'0 0.0
2015-Aug-29 08:33N 35°27' E 139°39'1 0.5
2015-Aug-29 07:33N 35°27' E 139°39'1 0.5
2015-Aug-29 06:33N 35°27' E 139°39'0 0.1
2015-Aug-29 05:34N 35°27' E 139°39'0 0.1
2015-Aug-29 04:33N 35°27' E 139°39'1 0.5
2015-Aug-29 03:33N 35°27' E 139°39'1 0.5
2015-Aug-29 02:33N 35°27' E 139°39'0 0.0
2015-Aug-29 01:33N 35°27' E 139°39'0 0.0
2015-Aug-29 00:33N 35°27' E 139°39'0 0.0
2015-Aug-28 12:29N 35°27' E 139°39'1 1.1
2015-Aug-28 11:33N 35°28' E 139°40'1 1.2
2015-Aug-28 10:33N 35°27' E 139°39'1 0.5
2015-Aug-28 09:33N 35°27' E 139°39'0 0.0
2015-Aug-28 08:33N 35°27' E 139°39'0 0.5
2015-Aug-28 07:34N 35°27' E 139°39'0 0.5
2015-Aug-28 06:33N 35°27' E 139°39'0 0.1
2015-Aug-28 05:34N 35°27' E 139°39'1 1.5
2015-Aug-28 04:33N 35°28' E 139°40'1 1.5
2015-Aug-28 03:33N 35°27' E 139°39'1 0.5
2015-Aug-28 02:33N 35°27' E 139°39'0 0.0
2015-Aug-28 01:33N 35°27' E 139°39'0 0.0
2015-Aug-28 00:33N 35°27' E 139°39'0 0.0
2015-Aug-27 12:26N 35°27' E 139°39'2 1.8
2015-Aug-27 11:33N 35°28' E 139°40'2 1.6
2015-Aug-27 10:34N 35°27' E 139°39'1 0.5
2015-Aug-27 09:33N 35°27' E 139°39'0 0.0
2015-Aug-27 08:33N 35°27' E 139°39'0 0.5
2015-Aug-27 07:34N 35°27' E 139°39'0 0.5
2015-Aug-27 06:33N 35°27' E 139°39'0 0.1
2015-Aug-27 05:33N 35°27' E 139°39'0 0.1
2015-Aug-27 04:33N 35°27' E 139°39'1 0.8
2015-Aug-27 03:33N 35°27' E 139°40'1 0.8
2015-Aug-27 02:33N 35°27' E 139°39'0 0.0
2015-Aug-27 01:33N 35°27' E 139°39'0 0.0
2015-Aug-26 12:31N 35°27' E 139°39'1 0.9
2015-Aug-26 11:34N 35°28' E 139°39'1 0.7
2015-Aug-26 10:33N 35°27' E 139°39'1 0.5
2015-Aug-26 09:33N 35°27' E 139°39'0 0.0
2015-Aug-26 08:33N 35°27' E 139°39'1 0.5
2015-Aug-26 07:33N 35°27' E 139°39'1 0.5
2015-Aug-26 06:33N 35°27' E 139°39'0 0.1
2015-Aug-26 05:33N 35°27' E 139°39'0 0.1
2015-Aug-26 04:33N 35°27' E 139°39'1 0.6
2015-Aug-26 03:33N 35°27' E 139°39'1 0.6
2015-Aug-26 02:33N 35°27' E 139°39'0 0.0
2015-Aug-26 01:33N 35°27' E 139°39'  

Dump ship's entire track history